Time,TemperatureF,DewpointF,PressureIn,WindDirection,WindDirectionDegrees,WindSpeedMPH,WindSpeedGustMPH,Humidity,HourlyPrecipIn,Conditions,Clouds,dailyrainin,SoftwareType,DateUTC
2013-05-13 00:00:00,37.6,32.3,29.73,WSW,243,0.0,0.0,81,0.00,,CLR,0.00,VWS V12.08,2013-05-13 04:00:00,
2013-05-13 00:01:00,37.6,32.3,29.73,WSW,243,0.0,0.0,81,0.00,,CLR,0.00,VWS V12.08,2013-05-13 04:01:00,
2013-05-13 00:06:00,37.5,32.5,29.73,WSW,243,0.0,0.0,82,0.00,,CLR,0.00,VWS V12.08,2013-05-13 04:06:00,
2013-05-13 00:10:00,37.5,32.8,29.73,WSW,243,0.0,0.0,83,0.00,,OVC080,0.00,VWS V12.08,2013-05-13 04:10:00,
2013-05-13 00:11:00,37.3,32.6,29.73,WSW,243,0.0,0.0,83,0.00,,CLR,0.00,VWS V12.08,2013-05-13 04:11:00,
2013-05-13 00:16:00,37.1,32.4,29.74,WSW,243,0.0,0.0,83,0.00,,CLR,0.00,VWS V12.08,2013-05-13 04:16:00,
2013-05-13 00:20:00,37.1,32.7,29.74,WSW,243,0.0,0.0,84,0.00,,OVC080,0.00,VWS V12.08,2013-05-13 04:20:00,
2013-05-13 00:21:00,36.9,32.5,29.74,WSW,243,0.0,0.0,84,0.00,,CLR,0.00,VWS V12.08,2013-05-13 04:21:00,
2013-05-13 00:26:00,36.8,33.0,29.74,WSW,243,0.0,0.0,86,0.00,,CLR,0.00,VWS V12.08,2013-05-13 04:26:00,
2013-05-13 00:30:00,36.8,33.0,29.74,WSW,243,0.0,0.0,86,0.00,,OVC080,0.00,VWS V12.08,2013-05-13 04:30:00,
2013-05-13 00:31:00,36.6,32.8,29.74,WSW,243,0.0,0.0,86,0.00,,CLR,0.00,VWS V12.08,2013-05-13 04:31:00,
2013-05-13 00:36:00,36.6,32.5,29.74,WSW,243,0.0,0.0,85,0.00,,CLR,0.00,VWS V12.08,2013-05-13 04:36:00,
2013-05-13 00:40:00,36.6,32.8,29.74,WSW,243,0.0,0.0,86,0.00,,OVC080,0.00,VWS V12.08,2013-05-13 04:40:00,
2013-05-13 00:41:00,36.5,32.1,29.74,WSW,243,0.0,0.0,84,0.00,,CLR,0.00,VWS V12.08,2013-05-13 04:41:00,
2013-05-13 00:46:00,36.6,32.2,29.74,WSW,243,0.0,0.0,84,0.00,,CLR,0.00,VWS V12.08,2013-05-13 04:46:00,
2013-05-13 00:50:00,36.6,32.5,29.74,WSW,243,0.0,0.0,85,0.00,,OVC080,0.00,VWS V12.08,2013-05-13 04:50:00,
2013-05-13 00:51:00,36.8,32.7,29.74,WSW,243,0.0,0.0,85,0.00,,CLR,0.00,VWS V12.08,2013-05-13 04:51:00,
2013-05-13 00:56:00,36.6,32.5,29.74,WSW,243,0.0,0.0,85,0.00,,CLR,0.00,VWS V12.08,2013-05-13 04:56:00,
2013-05-13 01:00:00,36.6,32.8,29.75,WSW,243,0.0,0.0,86,0.00,,OVC080,0.00,VWS V12.08,2013-05-13 05:00:00,
2013-05-13 01:01:00,36.6,32.8,29.75,WSW,243,0.0,0.0,86,0.00,,FEW070,0.00,VWS V12.08,2013-05-13 05:01:00,
2013-05-13 01:06:00,36.5,32.7,29.75,WSW,243,0.0,0.0,86,0.00,,FEW070,0.00,VWS V12.08,2013-05-13 05:06:00,
2013-05-13 01:10:00,36.3,32.5,29.75,WSW,243,0.0,0.0,86,0.00,,OVC080,0.00,VWS V12.08,2013-05-13 05:10:00,
2013-05-13 01:11:00,36.2,32.4,29.75,WSW,243,0.0,0.0,86,0.00,,FEW070,0.00,VWS V12.08,2013-05-13 05:11:00,
2013-05-13 01:16:00,36.0,32.2,29.75,WSW,243,0.0,0.0,86,0.00,,FEW070,0.00,VWS V12.08,2013-05-13 05:16:00,
2013-05-13 01:20:00,35.9,32.4,29.75,WSW,243,0.0,0.0,87,0.00,,OVC080,0.00,VWS V12.08,2013-05-13 05:20:00,
2013-05-13 01:21:00,35.8,32.3,29.75,WSW,243,0.0,0.0,87,0.00,,FEW070,0.00,VWS V12.08,2013-05-13 05:21:00,
2013-05-13 01:26:00,35.5,32.0,29.75,WSW,243,0.0,0.0,87,0.00,,FEW070,0.00,VWS V12.08,2013-05-13 05:26:00,
2013-05-13 01:30:00,35.5,32.0,29.75,WSW,243,0.0,0.0,87,0.00,,OVC080,0.00,VWS V12.08,2013-05-13 05:30:00,
2013-05-13 01:31:00,35.3,32.1,29.75,WSW,243,0.0,0.0,88,0.00,,FEW070,0.00,VWS V12.08,2013-05-13 05:31:00,
2013-05-13 01:36:00,35.3,32.4,29.75,WSW,243,0.0,0.0,89,0.00,,FEW070,0.00,VWS V12.08,2013-05-13 05:36:00,
2013-05-13 01:40:00,35.3,32.4,29.75,WSW,243,0.0,3.0,89,0.00,,OVC080,0.00,VWS V12.08,2013-05-13 05:40:00,
2013-05-13 01:41:00,35.3,32.4,29.75,WSW,243,0.0,0.0,89,0.00,,FEW070,0.00,VWS V12.08,2013-05-13 05:41:00,
2013-05-13 01:46:00,35.2,32.3,29.74,WSW,251,0.0,5.0,89,0.00,,FEW070,0.00,VWS V12.08,2013-05-13 05:46:00,
2013-05-13 01:50:00,35.2,32.3,29.74,WSW,251,0.0,1.0,89,0.00,,OVC080,0.00,VWS V12.08,2013-05-13 05:50:00,
2013-05-13 01:51:00,35.2,32.6,29.74,WSW,251,0.0,0.0,90,0.00,,FEW070,0.00,VWS V12.08,2013-05-13 05:51:00,
2013-05-13 01:56:00,35.2,32.3,29.74,WSW,251,0.0,0.0,89,0.00,,FEW070,0.00,VWS V12.08,2013-05-13 05:56:00,
2013-05-13 02:00:00,35.2,32.0,29.74,SSE,167,0.0,1.0,88,0.00,,OVC080,0.00,VWS V12.08,2013-05-13 06:00:00,
2013-05-13 02:01:00,35.3,31.5,29.74,SSE,167,0.0,0.0,86,0.00,,CLR,0.00,VWS V12.08,2013-05-13 06:01:00,
2013-05-13 02:06:00,35.6,31.2,29.74,SW,236,0.0,0.0,84,0.00,,CLR,0.00,VWS V12.08,2013-05-13 06:06:00,
2013-05-13 02:10:00,35.8,31.1,29.74,SW,234,0.0,0.0,83,0.00,,OVC080,0.00,VWS V12.08,2013-05-13 06:10:00,
2013-05-13 02:12:00,35.9,31.0,29.74,SW,234,0.0,0.0,82,0.00,,CLR,0.00,VWS V12.08,2013-05-13 06:12:00,
2013-05-13 02:17:00,36.0,31.6,29.74,ENE,58,0.0,2.0,84,0.00,,CLR,0.00,VWS V12.08,2013-05-13 06:17:00,
2013-05-13 02:20:00,35.9,31.8,29.74,ENE,58,0.0,0.0,85,0.00,,OVC080,0.00,VWS V12.08,2013-05-13 06:20:00,
2013-05-13 02:22:00,35.8,31.7,29.74,South,191,2.0,2.0,85,0.00,,CLR,0.00,VWS V12.08,2013-05-13 06:22:00,
2013-05-13 02:27:00,35.8,32.0,29.74,East,85,2.0,2.0,86,0.00,,CLR,0.00,VWS V12.08,2013-05-13 06:27:00,
2013-05-13 02:30:00,35.6,31.8,29.74,ENE,75,1.0,3.0,86,0.00,,OVC080,0.00,VWS V12.08,2013-05-13 06:30:00,
2013-05-13 02:32:00,35.3,31.5,29.74,ENE,75,0.0,2.0,86,0.00,,CLR,0.00,VWS V12.08,2013-05-13 06:32:00,
2013-05-13 02:37:00,35.0,31.5,29.74,ENE,75,0.0,1.0,87,0.00,,CLR,0.00,VWS V12.08,2013-05-13 06:37:00,
2013-05-13 02:40:00,35.0,31.8,29.74,SSW,206,2.0,3.0,88,0.00,,OVC080,0.00,VWS V12.08,2013-05-13 06:40:00,
2013-05-13 02:42:00,35.0,31.5,29.74,SSW,206,0.0,0.0,87,0.00,,CLR,0.00,VWS V12.08,2013-05-13 06:42:00,
2013-05-13 02:47:00,35.9,31.2,29.74,West,271,4.0,8.0,83,0.00,,CLR,0.00,VWS V12.08,2013-05-13 06:47:00,
2013-05-13 02:50:00,36.3,30.7,29.74,SW,236,3.0,7.0,80,0.00,,OVC080,0.00,VWS V12.08,2013-05-13 06:50:00,
2013-05-13 02:52:00,37.2,30.7,29.74,WSW,256,0.0,0.0,77,0.00,,CLR,0.00,VWS V12.08,2013-05-13 06:52:00,
2013-05-13 02:57:00,37.9,30.7,29.74,WSW,241,5.0,6.0,75,0.00,,CLR,0.00,VWS V12.08,2013-05-13 06:57:00,
2013-05-13 03:00:00,38.1,30.6,29.74,WSW,240,2.0,11.0,74,0.00,,OVC080,0.00,VWS V12.08,2013-05-13 07:00:00,
2013-05-13 03:02:00,38.6,30.4,29.74,WSW,246,8.0,12.0,72,0.00,,CLR,0.00,VWS V12.08,2013-05-13 07:02:00,
2013-05-13 03:07:00,39.2,30.6,29.74,WNW,291,0.0,8.0,71,0.00,,CLR,0.00,VWS V12.08,2013-05-13 07:07:00,
2013-05-13 03:10:00,39.3,30.4,29.74,NW,320,2.0,11.0,70,0.00,,OVC080,0.00,VWS V12.08,2013-05-13 07:10:00,
2013-05-13 03:12:00,39.5,30.5,29.74,WSW,254,6.0,12.0,70,0.00,,CLR,0.00,VWS V12.08,2013-05-13 07:12:00,
2013-05-13 03:17:00,39.6,30.3,29.75,West,278,5.0,10.0,69,0.00,,CLR,0.00,VWS V12.08,2013-05-13 07:17:00,
2013-05-13 03:20:00,39.6,29.6,29.75,SSW,208,11.0,16.0,67,0.00,,OVC080,0.00,VWS V12.08,2013-05-13 07:20:00,
2013-05-13 03:22:00,39.6,29.2,29.75,SW,229,6.0,14.0,66,0.00,,CLR,0.00,VWS V12.08,2013-05-13 07:22:00,
2013-05-13 03:27:00,39.8,29.4,29.75,WSW,256,4.0,11.0,66,0.00,,CLR,0.00,VWS V12.08,2013-05-13 07:27:00,
2013-05-13 03:30:00,39.8,29.8,29.74,SW,222,6.0,8.0,67,0.00,,OVC080,0.00,VWS V12.08,2013-05-13 07:30:00,
2013-05-13 03:32:00,39.6,29.2,29.74,WSW,239,6.0,17.0,66,0.00,,CLR,0.00,VWS V12.08,2013-05-13 07:32:00,
2013-05-13 03:37:00,39.6,28.8,29.74,West,274,2.0,11.0,65,0.00,,CLR,0.00,VWS V12.08,2013-05-13 07:37:00,
2013-05-13 03:40:00,39.6,28.8,29.74,SW,232,6.0,7.0,65,0.00,,OVC080,0.00,VWS V12.08,2013-05-13 07:40:00,
2013-05-13 03:42:00,39.6,28.8,29.74,WSW,244,3.0,6.0,65,0.00,,CLR,0.00,VWS V12.08,2013-05-13 07:42:00,
2013-05-13 03:47:00,39.5,28.4,29.74,West,267,5.0,12.0,64,0.00,,CLR,0.00,VWS V12.08,2013-05-13 07:47:00,
2013-05-13 03:50:00,39.5,28.0,29.74,West,265,2.0,12.0,63,0.00,,OVC080,0.00,VWS V12.08,2013-05-13 07:50:00,
2013-05-13 03:52:00,39.5,27.2,29.74,West,275,2.0,3.0,61,0.00,,CLR,0.00,VWS V12.08,2013-05-13 07:52:00,
2013-05-13 03:57:00,39.5,26.8,29.74,WSW,253,5.0,7.0,60,0.00,,CLR,0.00,VWS V12.08,2013-05-13 07:57:00,
2013-05-13 04:00:00,39.5,26.8,29.75,WSW,241,6.0,11.0,60,0.00,,OVC080,0.00,VWS V12.08,2013-05-13 08:00:00,
2013-05-13 04:02:00,39.5,26.4,29.75,West,278,1.0,5.0,59,0.00,,CLR,0.00,VWS V12.08,2013-05-13 08:02:00,
2013-05-13 04:07:00,39.6,26.9,29.75,WSW,250,16.0,16.0,60,0.00,,CLR,0.00,VWS V12.08,2013-05-13 08:07:00,
2013-05-13 04:10:00,39.6,26.5,29.75,WSW,250,7.0,11.0,59,0.00,,OVC080,0.00,VWS V12.08,2013-05-13 08:10:00,
2013-05-13 04:12:00,39.8,27.1,29.75,WSW,258,2.0,4.0,60,0.00,,CLR,0.00,VWS V12.08,2013-05-13 08:12:00,
2013-05-13 04:17:00,39.8,26.7,29.75,SW,227,1.0,7.0,59,0.00,,CLR,0.00,VWS V12.08,2013-05-13 08:17:00,
2013-05-13 04:20:00,39.8,27.1,29.75,SW,220,0.0,3.0,60,0.00,,OVC080,0.00,VWS V12.08,2013-05-13 08:20:00,
2013-05-13 04:22:00,39.8,27.9,29.75,WSW,244,0.0,3.0,62,0.00,,CLR,0.00,VWS V12.08,2013-05-13 08:22:00,
2013-05-13 04:27:00,39.6,28.1,29.75,SW,232,0.0,3.0,63,0.00,,CLR,0.00,VWS V12.08,2013-05-13 08:27:00,
2013-05-13 04:30:00,39.6,28.4,29.75,WNW,298,3.0,6.0,64,0.00,,OVC080,0.00,VWS V12.08,2013-05-13 08:30:00,
2013-05-13 04:32:00,39.5,28.4,29.75,WNW,285,5.0,17.0,64,0.00,,CLR,0.00,VWS V12.08,2013-05-13 08:32:00,
2013-05-13 04:37:00,39.3,28.2,29.75,West,260,1.0,2.0,64,0.00,,CLR,0.00,VWS V12.08,2013-05-13 08:37:00,
2013-05-13 04:40:00,39.3,28.2,29.75,West,263,1.0,2.0,64,0.00,,OVC080,0.00,VWS V12.08,2013-05-13 08:40:00,
2013-05-13 04:42:00,39.3,28.5,29.75,SW,229,0.0,8.0,65,0.00,,CLR,0.00,VWS V12.08,2013-05-13 08:42:00,
2013-05-13 04:47:00,39.2,28.1,29.76,SW,220,1.0,6.0,64,0.00,,CLR,0.00,VWS V12.08,2013-05-13 08:47:00,
2013-05-13 04:50:00,39.2,28.4,29.76,SW,224,0.0,3.0,65,0.00,,OVC080,0.00,VWS V12.08,2013-05-13 08:50:00,
2013-05-13 04:52:00,39.2,28.1,29.76,SW,227,0.0,2.0,64,0.00,,CLR,0.00,VWS V12.08,2013-05-13 08:52:00,
2013-05-13 04:57:00,39.2,28.4,29.76,SW,229,0.0,2.0,65,0.00,,CLR,0.00,VWS V12.08,2013-05-13 08:57:00,
2013-05-13 05:00:00,39.2,28.4,29.76,WSW,237,1.0,5.0,65,0.00,,OVC080,0.00,VWS V12.08,2013-05-13 09:00:00,
2013-05-13 05:02:00,39.1,28.7,29.76,WSW,237,0.0,1.0,66,0.00,,OVC070,0.00,VWS V12.08,2013-05-13 09:02:00,
2013-05-13 05:07:00,38.9,28.9,29.76,WNW,284,0.0,8.0,67,0.00,,OVC070,0.00,VWS V12.08,2013-05-13 09:07:00,
2013-05-13 05:10:00,38.9,28.5,29.76,WNW,284,0.0,1.0,66,0.00,,OVC080,0.00,VWS V12.08,2013-05-13 09:10:00,
2013-05-13 05:12:00,38.8,28.4,29.76,West,277,0.0,0.0,66,0.00,,OVC070,0.00,VWS V12.08,2013-05-13 09:12:00,
2013-05-13 05:17:00,38.8,28.8,29.78,SW,233,5.0,6.0,67,0.00,,OVC070,0.00,VWS V12.08,2013-05-13 09:17:00,
2013-05-13 05:20:00,38.9,28.5,29.78,WSW,243,1.0,10.0,66,0.00,,OVC080,0.00,VWS V12.08,2013-05-13 09:20:00,
2013-05-13 05:22:00,38.9,28.5,29.78,WSW,251,1.0,7.0,66,0.00,,OVC070,0.00,VWS V12.08,2013-05-13 09:22:00,
2013-05-13 05:27:00,39.1,28.7,29.78,WSW,243,2.0,6.0,66,0.00,,OVC070,0.00,VWS V12.08,2013-05-13 09:27:00,
2013-05-13 05:30:00,39.1,28.7,29.78,West,280,0.0,4.0,66,0.00,,OVC080,0.00,VWS V12.08,2013-05-13 09:30:00,
2013-05-13 05:32:00,39.1,28.7,29.78,West,278,0.0,0.0,66,0.00,,OVC070,0.00,VWS V12.08,2013-05-13 09:32:00,
2013-05-13 05:37:00,39.1,28.7,29.78,WSW,254,0.0,3.0,66,0.00,,OVC070,0.00,VWS V12.08,2013-05-13 09:37:00,
2013-05-13 05:40:00,39.1,28.7,29.78,WSW,243,1.0,6.0,66,0.00,,OVC080,0.00,VWS V12.08,2013-05-13 09:40:00,
2013-05-13 05:42:00,39.1,28.7,29.78,NNW,342,2.0,5.0,66,0.00,,OVC055,0.00,VWS V12.08,2013-05-13 09:42:00,
2013-05-13 05:47:00,39.1,28.7,29.78,NNW,337,1.0,2.0,66,0.00,,OVC055,0.00,VWS V12.08,2013-05-13 09:47:00,
2013-05-13 05:50:00,39.1,28.7,29.78,NNW,337,0.0,2.0,66,0.00,,OVC080,0.00,VWS V12.08,2013-05-13 09:50:00,
2013-05-13 05:52:00,39.1,28.7,29.78,WNW,302,0.0,0.0,66,0.00,,OVC055,0.00,VWS V12.08,2013-05-13 09:52:00,
2013-05-13 05:57:00,39.1,28.3,29.78,WNW,294,0.0,3.0,65,0.00,,OVC055,0.00,VWS V12.08,2013-05-13 09:57:00,
2013-05-13 06:00:00,39.1,28.3,29.79,WNW,294,0.0,0.0,65,0.00,,OVC080,0.00,VWS V12.08,2013-05-13 10:00:00,
2013-05-13 06:02:00,39.1,28.3,29.79,WNW,294,0.0,0.0,65,0.00,,OVC055,0.00,VWS V12.08,2013-05-13 10:02:00,
2013-05-13 06:07:00,39.1,28.3,29.79,WNW,295,2.0,2.0,65,0.00,,OVC055,0.00,VWS V12.08,2013-05-13 10:07:00,
2013-05-13 06:10:00,39.1,28.0,29.79,WNW,295,1.0,2.0,64,0.00,,OVC080,0.00,VWS V12.08,2013-05-13 10:10:00,
2013-05-13 06:12:00,39.1,28.3,29.79,WNW,295,0.0,0.0,65,0.00,,OVC055,0.00,VWS V12.08,2013-05-13 10:12:00,
2013-05-13 06:17:00,39.1,28.0,29.80,WNW,295,0.0,0.0,64,0.00,,OVC055,0.00,VWS V12.08,2013-05-13 10:17:00,
2013-05-13 06:20:00,39.1,28.3,29.80,WNW,295,0.0,0.0,65,0.00,,OVC080,0.00,VWS V12.08,2013-05-13 10:20:00,
2013-05-13 06:22:00,39.1,28.3,29.80,WSW,257,0.0,0.0,65,0.00,,OVC055,0.00,VWS V12.08,2013-05-13 10:22:00,
2013-05-13 06:27:00,39.1,28.0,29.80,West,263,0.0,2.0,64,0.00,,OVC055,0.00,VWS V12.08,2013-05-13 10:27:00,
2013-05-13 06:30:00,39.1,28.0,29.80,West,261,0.0,0.0,64,0.00,,OVC080,0.00,VWS V12.08,2013-05-13 10:30:00,
2013-05-13 06:32:00,39.1,28.3,29.80,West,261,0.0,0.0,65,0.00,,OVC055,0.00,VWS V12.08,2013-05-13 10:32:00,
2013-05-13 06:37:00,39.1,28.0,29.80,West,261,0.0,2.0,64,0.00,,OVC055,0.00,VWS V12.08,2013-05-13 10:37:00,
2013-05-13 06:40:00,39.1,28.0,29.80,West,261,0.0,0.0,64,0.00,,OVC080,0.00,VWS V12.08,2013-05-13 10:40:00,
2013-05-13 06:42:00,39.1,28.3,29.81,WSW,251,0.0,4.0,65,0.00,,OVC055,0.00,VWS V12.08,2013-05-13 10:42:00,
2013-05-13 06:47:00,39.1,28.0,29.81,WSW,257,0.0,1.0,64,0.00,,OVC055,0.00,VWS V12.08,2013-05-13 10:47:00,
2013-05-13 06:50:00,39.1,28.0,29.81,WSW,257,0.0,0.0,64,0.00,,OVC080,0.00,VWS V12.08,2013-05-13 10:50:00,
2013-05-13 06:52:00,39.2,28.1,29.81,WSW,257,0.0,0.0,64,0.00,,OVC055,0.00,VWS V12.08,2013-05-13 10:52:00,
2013-05-13 06:57:00,39.2,28.1,29.81,West,264,0.0,3.0,64,0.00,,OVC055,0.00,VWS V12.08,2013-05-13 10:57:00,
2013-05-13 07:00:00,39.2,28.1,29.81,West,263,0.0,1.0,64,0.00,,OVC080,0.00,VWS V12.08,2013-05-13 11:00:00,
2013-05-13 07:02:00,39.3,27.8,29.81,West,268,7.0,7.0,63,0.00,,OVC050,0.00,VWS V12.08,2013-05-13 11:02:00,
2013-05-13 07:07:00,39.3,27.4,29.81,SW,220,0.0,2.0,62,0.00,,OVC050,0.00,VWS V12.08,2013-05-13 11:07:00,
2013-05-13 07:10:00,39.3,27.8,29.81,SW,222,2.0,2.0,63,0.00,,OVC080,0.00,VWS V12.08,2013-05-13 11:10:00,
2013-05-13 07:12:00,39.5,27.6,29.81,WSW,244,6.0,7.0,62,0.00,,OVC050,0.00,VWS V12.08,2013-05-13 11:12:00,
2013-05-13 07:17:00,39.5,26.4,29.81,WSW,251,0.0,2.0,59,0.00,,OVC050,0.00,VWS V12.08,2013-05-13 11:17:00,
2013-05-13 07:20:00,39.5,26.4,29.81,SW,230,0.0,2.0,59,0.00,,OVC080,0.00,VWS V12.08,2013-05-13 11:20:00,
2013-05-13 07:22:00,39.5,25.5,29.81,NW,316,1.0,3.0,57,0.00,,OVC050,0.00,VWS V12.08,2013-05-13 11:22:00,
2013-05-13 07:27:00,39.5,26.0,29.82,SW,236,0.0,0.0,58,0.00,,OVC050,0.00,VWS V12.08,2013-05-13 11:27:00,
2013-05-13 07:30:00,39.5,26.0,29.82,SW,216,1.0,3.0,58,0.00,,OVC080,0.00,VWS V12.08,2013-05-13 11:30:00,
2013-05-13 07:32:00,39.6,25.6,29.82,WSW,258,3.0,8.0,57,0.00,,OVC050,0.00,VWS V12.08,2013-05-13 11:32:00,
2013-05-13 07:37:00,39.6,25.2,29.82,SW,230,0.0,2.0,56,0.00,,OVC050,0.00,VWS V12.08,2013-05-13 11:37:00,
2013-05-13 07:40:00,39.6,25.2,29.82,WSW,251,3.0,6.0,56,0.00,,OVC080,0.00,VWS V12.08,2013-05-13 11:40:00,
2013-05-13 07:42:00,39.8,25.8,29.82,WSW,251,3.0,10.0,57,0.00,,OVC050,0.00,VWS V12.08,2013-05-13 11:42:00,
2013-05-13 07:47:00,39.9,25.1,29.82,SSW,199,0.0,6.0,55,0.00,,OVC050,0.00,VWS V12.08,2013-05-13 11:47:00,
2013-05-13 07:50:00,39.9,25.5,29.82,SSW,200,0.0,2.0,56,0.00,,OVC080,0.00,VWS V12.08,2013-05-13 11:50:00,
2013-05-13 07:52:00,40.2,25.8,29.82,WNW,294,2.0,5.0,56,0.00,,OVC050,0.00,VWS V12.08,2013-05-13 11:52:00,
2013-05-13 07:57:00,40.3,25.4,29.82,WSW,247,6.0,8.0,55,0.00,,OVC050,0.00,VWS V12.08,2013-05-13 11:57:00,
2013-05-13 08:00:00,40.5,25.6,29.82,WSW,241,1.0,8.0,55,0.00,,OVC080,0.00,VWS V12.08,2013-05-13 12:00:00,
2013-05-13 08:03:00,40.6,25.7,29.82,WSW,241,1.0,6.0,55,0.00,,OVC050,0.00,VWS V12.08,2013-05-13 12:03:00,
2013-05-13 08:08:00,40.8,25.5,29.82,WSW,253,0.0,6.0,54,0.00,,OVC050,0.00,VWS V12.08,2013-05-13 12:08:00,
2013-05-13 08:10:00,40.8,26.3,29.82,WSW,253,5.0,8.0,56,0.00,,OVC080,0.00,VWS V12.08,2013-05-13 12:10:00,
2013-05-13 08:13:00,40.9,26.0,29.83,WSW,256,9.0,14.0,55,0.00,,OVC050,0.00,VWS V12.08,2013-05-13 12:13:00,
2013-05-13 08:18:00,41.1,25.7,29.83,WNW,284,1.0,4.0,54,0.00,,OVC050,0.00,VWS V12.08,2013-05-13 12:18:00,
2013-05-13 08:20:00,41.1,25.7,29.83,West,265,0.0,3.0,54,0.00,,OVC080,0.00,VWS V12.08,2013-05-13 12:20:00,
2013-05-13 08:23:00,41.1,26.2,29.83,SW,234,7.0,14.0,55,0.00,,SCT050,0.00,VWS V12.08,2013-05-13 12:23:00,
2013-05-13 08:28:00,41.2,25.8,29.83,SW,224,9.0,11.0,54,0.00,,SCT050,0.00,VWS V12.08,2013-05-13 12:28:00,
2013-05-13 08:30:00,41.3,26.4,29.83,WNW,302,6.0,9.0,55,0.00,,OVC080,0.00,VWS V12.08,2013-05-13 12:30:00,
2013-05-13 08:33:00,42.1,27.5,29.83,WSW,240,4.0,10.0,56,0.00,,SCT050,0.00,VWS V12.08,2013-05-13 12:33:00,
2013-05-13 08:38:00,42.6,26.2,29.83,WSW,243,6.0,14.0,52,0.00,,SCT050,0.00,VWS V12.08,2013-05-13 12:38:00,
2013-05-13 08:40:00,42.6,26.2,29.83,West,267,7.0,12.0,52,0.00,,OVC080,0.00,VWS V12.08,2013-05-13 12:40:00,
2013-05-13 08:43:00,42.6,26.2,29.84,WNW,285,2.0,4.0,52,0.00,,SCT050,0.00,VWS V12.08,2013-05-13 12:43:00,
2013-05-13 08:48:00,42.8,26.9,29.84,West,261,6.0,16.0,53,0.00,,SCT050,0.00,VWS V12.08,2013-05-13 12:48:00,
2013-05-13 08:50:00,42.8,26.9,29.84,SSW,202,5.0,7.0,53,0.00,,OVC080,0.00,VWS V12.08,2013-05-13 12:50:00,
2013-05-13 08:53:00,42.9,26.5,29.84,WSW,240,6.0,9.0,52,0.00,,SCT050,0.00,VWS V12.08,2013-05-13 12:53:00,
2013-05-13 08:58:00,42.9,26.5,29.84,WSW,256,6.0,12.0,52,0.00,,SCT050,0.00,VWS V12.08,2013-05-13 12:58:00,
2013-05-13 09:00:00,42.9,27.0,29.84,WSW,247,4.0,11.0,53,0.00,,OVC080,0.00,VWS V12.08,2013-05-13 13:00:00,
2013-05-13 09:03:00,42.8,25.5,29.84,West,260,2.0,14.0,50,0.00,,OVC049,0.00,VWS V12.08,2013-05-13 13:03:00,
2013-05-13 09:08:00,42.6,27.1,29.84,West,275,1.0,10.0,54,0.00,,OVC049,0.00,VWS V12.08,2013-05-13 13:08:00,
2013-05-13 09:10:00,42.6,26.7,29.84,West,274,1.0,10.0,53,0.00,,OVC080,0.00,VWS V12.08,2013-05-13 13:10:00,
2013-05-13 09:13:00,43.1,26.2,29.84,SW,224,5.0,12.0,51,0.00,,OVC049,0.00,VWS V12.08,2013-05-13 13:13:00,
2013-05-13 09:18:00,44.0,27.0,29.84,WNW,291,6.0,10.0,51,0.00,,OVC049,0.00,VWS V12.08,2013-05-13 13:18:00,
2013-05-13 09:20:00,44.0,27.5,29.84,WSW,247,8.0,10.0,52,0.00,,OVC080,0.00,VWS V12.08,2013-05-13 13:20:00,
2013-05-13 09:23:00,44.1,26.7,29.84,WSW,240,11.0,20.0,50,0.00,,OVC049,0.00,VWS V12.08,2013-05-13 13:23:00,
2013-05-13 09:28:00,44.0,27.0,29.84,West,277,5.0,6.0,51,0.00,,OVC049,0.00,VWS V12.08,2013-05-13 13:28:00,
2013-05-13 09:30:00,44.0,27.0,29.84,WSW,247,6.0,6.0,51,0.00,,OVC080,0.00,VWS V12.08,2013-05-13 13:30:00,
2013-05-13 09:33:00,44.1,26.7,29.84,WNW,287,6.0,10.0,50,0.00,,OVC049,0.00,VWS V12.08,2013-05-13 13:33:00,
2013-05-13 09:38:00,44.0,26.1,29.84,West,274,2.0,12.0,49,0.00,,OVC049,0.00,VWS V12.08,2013-05-13 13:38:00,
2013-05-13 09:40:00,44.0,26.6,29.84,West,278,7.0,9.0,50,0.00,,OVC080,0.00,VWS V12.08,2013-05-13 13:40:00,
2013-05-13 09:43:00,44.2,26.8,29.85,SW,222,3.0,5.0,50,0.00,,OVC049,0.00,VWS V12.08,2013-05-13 13:43:00,
2013-05-13 09:48:00,44.2,26.3,29.85,NW,316,1.0,7.0,49,0.00,,OVC049,0.00,VWS V12.08,2013-05-13 13:48:00,
2013-05-13 09:50:00,44.2,26.3,29.85,NW,316,0.0,3.0,49,0.00,,OVC080,0.00,VWS V12.08,2013-05-13 13:50:00,
2013-05-13 09:53:00,44.2,27.2,29.85,NNW,336,1.0,5.0,51,0.00,,OVC049,0.00,VWS V12.08,2013-05-13 13:53:00,
2013-05-13 09:58:00,44.4,26.5,29.85,SW,224,3.0,8.0,49,0.00,,OVC049,0.00,VWS V12.08,2013-05-13 13:58:00,
2013-05-13 10:00:00,44.4,26.5,29.85,West,261,8.0,8.0,49,0.00,,OVC080,0.00,VWS V12.08,2013-05-13 14:00:00,
2013-05-13 10:03:00,44.5,28.0,29.85,SW,233,5.0,7.0,52,0.00,,OVC049,0.00,VWS V12.08,2013-05-13 14:03:00,
2013-05-13 10:08:00,44.4,27.4,29.85,West,268,3.0,6.0,51,0.00,,OVC049,0.00,VWS V12.08,2013-05-13 14:08:00,
2013-05-13 10:10:00,44.4,27.4,29.85,West,280,3.0,4.0,51,0.00,,OVC080,0.00,VWS V12.08,2013-05-13 14:10:00,
2013-05-13 10:13:00,44.1,27.6,29.86,SW,226,6.0,11.0,52,0.00,,OVC049,0.00,VWS V12.08,2013-05-13 14:13:00,
2013-05-13 10:18:00,43.8,26.4,29.86,SW,229,0.0,8.0,50,0.00,,OVC049,0.00,VWS V12.08,2013-05-13 14:18:00,
2013-05-13 10:20:00,43.8,26.4,29.86,SW,229,2.0,5.0,50,0.00,,OVC080,0.00,VWS V12.08,2013-05-13 14:20:00,
2013-05-13 10:23:00,43.8,28.2,29.86,West,278,6.0,8.0,54,0.00,,OVC049,0.00,VWS V12.08,2013-05-13 14:23:00,
2013-05-13 10:28:00,44.1,28.1,29.86,West,260,1.0,2.0,53,0.00,,OVC049,0.00,VWS V12.08,2013-05-13 14:28:00,
2013-05-13 10:30:00,44.1,28.1,29.86,West,260,0.0,2.0,53,0.00,,OVC080,0.00,VWS V12.08,2013-05-13 14:30:00,
2013-05-13 10:33:00,44.1,26.2,29.86,SW,232,10.0,14.0,49,0.00,,OVC049,0.00,VWS V12.08,2013-05-13 14:33:00,
2013-05-13 10:38:00,43.7,26.8,29.86,WSW,253,11.0,11.0,51,0.00,,OVC049,0.00,VWS V12.08,2013-05-13 14:38:00,
2013-05-13 10:40:00,43.7,26.8,29.86,SSW,203,7.0,11.0,51,0.00,,OVC080,0.00,VWS V12.08,2013-05-13 14:40:00,
2013-05-13 10:43:00,43.7,26.3,29.86,WNW,298,1.0,5.0,50,0.00,,OVC049,0.00,VWS V12.08,2013-05-13 14:43:00,
2013-05-13 10:48:00,43.8,26.9,29.86,NW,306,1.0,5.0,51,0.00,,OVC049,0.00,VWS V12.08,2013-05-13 14:48:00,
2013-05-13 10:50:00,43.8,26.9,29.86,WNW,302,2.0,5.0,51,0.00,,OVC080,0.00,VWS V12.08,2013-05-13 14:50:00,
2013-05-13 10:53:00,43.8,26.4,29.86,WSW,254,5.0,6.0,50,0.00,,OVC049,0.00,VWS V12.08,2013-05-13 14:53:00,
2013-05-13 10:58:00,43.8,27.3,29.87,SW,230,5.0,10.0,52,0.00,,OVC049,0.00,VWS V12.08,2013-05-13 14:58:00,
2013-05-13 11:00:00,43.8,27.3,29.87,WSW,258,1.0,10.0,52,0.00,,OVC080,0.00,VWS V12.08,2013-05-13 15:00:00,
2013-05-13 11:03:00,43.8,26.4,29.87,SW,234,10.0,16.0,50,0.00,,OVC047,0.00,VWS V12.08,2013-05-13 15:03:00,
2013-05-13 11:08:00,44.0,27.0,29.87,SW,222,7.0,10.0,51,0.00,,OVC047,0.00,VWS V12.08,2013-05-13 15:08:00,
2013-05-13 11:10:00,44.0,27.0,29.87,West,277,3.0,10.0,51,0.00,,OVC080,0.00,VWS V12.08,2013-05-13 15:10:00,
2013-05-13 11:13:00,44.2,26.8,29.87,WSW,239,6.0,8.0,50,0.00,,OVC047,0.00,VWS V12.08,2013-05-13 15:13:00,
2013-05-13 11:18:00,44.4,26.5,29.87,SW,232,12.0,19.0,49,0.00,,OVC047,0.00,VWS V12.08,2013-05-13 15:18:00,
2013-05-13 11:20:00,44.4,26.5,29.87,West,261,5.0,19.0,49,0.00,,OVC080,0.00,VWS V12.08,2013-05-13 15:20:00,
2013-05-13 11:23:00,44.5,25.5,29.87,NW,312,2.0,7.0,47,0.00,,OVC047,0.00,VWS V12.08,2013-05-13 15:23:00,
2013-05-13 11:28:00,44.8,26.3,29.88,West,271,5.0,12.0,48,0.00,,OVC047,0.00,VWS V12.08,2013-05-13 15:28:00,
2013-05-13 11:30:00,44.8,26.3,29.88,WNW,285,4.0,12.0,48,0.00,,OVC080,0.00,VWS V12.08,2013-05-13 15:30:00,
2013-05-13 11:33:00,44.7,26.7,29.88,WSW,250,5.0,8.0,49,0.00,,OVC047,0.00,VWS V12.08,2013-05-13 15:33:00,
2013-05-13 11:38:00,44.7,27.7,29.88,SSW,192,4.0,6.0,51,0.00,,OVC047,0.00,VWS V12.08,2013-05-13 15:38:00,
2013-05-13 11:40:00,44.5,27.5,29.88,SSW,213,3.0,6.0,51,0.00,,OVC080,0.00,VWS V12.08,2013-05-13 15:40:00,
2013-05-13 11:43:00,44.7,29.1,29.88,SSW,210,0.0,2.0,54,0.00,,OVC047,0.00,VWS V12.08,2013-05-13 15:43:00,
2013-05-13 11:48:00,45.1,27.1,29.88,WSW,253,1.0,3.0,49,0.00,,OVC047,0.00,VWS V12.08,2013-05-13 15:48:00,
2013-05-13 11:50:00,45.1,27.1,29.88,WSW,253,0.0,3.0,49,0.00,,OVC080,0.00,VWS V12.08,2013-05-13 15:50:00,
2013-05-13 11:53:00,45.3,27.8,29.88,SSW,203,6.0,6.0,50,0.00,,OVC047,0.00,VWS V12.08,2013-05-13 15:53:00,
2013-05-13 11:58:00,45.0,27.0,29.89,South,182,2.0,11.0,49,0.00,,OVC047,0.00,VWS V12.08,2013-05-13 15:58:00,
2013-05-13 12:00:00,45.0,27.0,29.89,WSW,254,6.0,11.0,49,0.00,,OVC080,0.00,VWS V12.08,2013-05-13 16:00:00,
2013-05-13 12:03:00,44.8,27.8,29.89,NW,320,3.0,6.0,51,0.00,,OVC049,0.00,VWS V12.08,2013-05-13 16:03:00,
2013-05-13 12:08:00,45.1,27.6,29.89,NW,309,5.0,5.0,50,0.00,,OVC049,0.00,VWS V12.08,2013-05-13 16:08:00,
2013-05-13 12:10:00,45.1,27.6,29.89,NW,309,2.0,5.0,50,0.00,,OVC080,0.00,VWS V12.08,2013-05-13 16:10:00,
2013-05-13 12:13:00,45.6,29.5,29.88,WNW,299,2.0,4.0,53,0.00,,OVC049,0.00,VWS V12.08,2013-05-13 16:13:00,
2013-05-13 12:18:00,46.8,27.6,29.88,WSW,251,4.0,16.0,47,0.00,,OVC049,0.00,VWS V12.08,2013-05-13 16:18:00,
2013-05-13 12:20:00,46.8,27.6,29.88,WSW,251,2.0,16.0,47,0.00,,OVC080,0.00,VWS V12.08,2013-05-13 16:20:00,
2013-05-13 12:23:00,47.2,28.5,29.88,WSW,258,2.0,4.0,48,0.00,,OVC049,0.00,VWS V12.08,2013-05-13 16:23:00,
2013-05-13 12:28:00,46.9,28.8,29.89,WSW,244,5.0,9.0,49,0.00,,OVC049,0.00,VWS V12.08,2013-05-13 16:28:00,
2013-05-13 12:30:00,46.9,28.8,29.89,WNW,295,5.0,9.0,49,0.00,,OVC080,0.00,VWS V12.08,2013-05-13 16:30:00,
2013-05-13 12:33:00,46.2,28.6,29.89,SW,224,13.0,21.0,50,0.00,,OVC049,0.00,VWS V12.08,2013-05-13 16:33:00,
2013-05-13 12:38:00,46.0,28.9,29.89,WNW,289,11.0,19.0,51,0.00,,OVC049,0.00,VWS V12.08,2013-05-13 16:38:00,
2013-05-13 12:40:00,46.0,28.9,29.89,NW,316,4.0,19.0,51,0.00,,OVC080,0.00,VWS V12.08,2013-05-13 16:40:00,
2013-05-13 12:43:00,46.2,28.6,29.89,West,281,7.0,14.0,50,0.00,,OVC049,0.00,VWS V12.08,2013-05-13 16:43:00,
2013-05-13 12:48:00,46.6,28.0,29.89,WSW,250,8.0,14.0,48,0.00,,OVC049,0.00,VWS V12.08,2013-05-13 16:48:00,
2013-05-13 12:50:00,46.6,28.0,29.89,WSW,240,13.0,13.0,48,0.00,,OVC080,0.00,VWS V12.08,2013-05-13 16:50:00,
2013-05-13 12:53:00,46.8,28.2,29.89,SW,224,6.0,6.0,48,0.00,,OVC049,0.00,VWS V12.08,2013-05-13 16:53:00,
2013-05-13 12:58:00,47.1,28.9,29.89,WNW,288,3.0,6.0,49,0.00,,OVC049,0.00,VWS V12.08,2013-05-13 16:58:00,
2013-05-13 13:00:00,47.1,28.9,29.89,WNW,287,2.0,6.0,49,0.00,,OVC080,0.00,VWS V12.08,2013-05-13 17:00:00,
2013-05-13 13:03:00,47.4,27.7,29.89,SW,236,5.0,12.0,46,0.00,,OVC070,0.00,VWS V12.08,2013-05-13 17:03:00,
2013-05-13 13:08:00,47.1,27.9,29.89,WSW,237,6.0,7.0,47,0.00,,OVC070,0.00,VWS V12.08,2013-05-13 17:08:00,
2013-05-13 13:10:00,47.1,27.9,29.89,WSW,250,8.0,8.0,47,0.00,,OVC080,0.00,VWS V12.08,2013-05-13 17:10:00,
2013-05-13 13:13:00,46.6,28.0,29.90,NW,315,3.0,4.0,48,0.00,,OVC070,0.00,VWS V12.08,2013-05-13 17:13:00,
2013-05-13 13:18:00,46.3,27.7,29.90,West,270,2.0,18.0,48,0.00,,OVC070,0.00,VWS V12.08,2013-05-13 17:18:00,
2013-05-13 13:20:00,46.3,27.7,29.90,West,270,2.0,18.0,48,0.00,,OVC080,0.00,VWS V12.08,2013-05-13 17:20:00,
2013-05-13 13:23:00,45.9,28.3,29.90,SW,216,8.0,10.0,50,0.00,,OVC070,0.00,VWS V12.08,2013-05-13 17:23:00,
2013-05-13 13:28:00,45.7,28.1,29.90,WSW,246,14.0,14.0,50,0.00,,OVC070,0.00,VWS V12.08,2013-05-13 17:28:00,
2013-05-13 13:30:00,45.7,28.1,29.90,West,274,4.0,8.0,50,0.00,,OVC080,0.00,VWS V12.08,2013-05-13 17:30:00,
2013-05-13 13:33:00,45.6,28.5,29.90,SSW,199,11.0,11.0,51,0.00,,OVC070,0.00,VWS V12.08,2013-05-13 17:33:00,
2013-05-13 13:38:00,45.9,28.3,29.90,WSW,246,14.0,17.0,50,0.00,,OVC070,0.00,VWS V12.08,2013-05-13 17:38:00,
2013-05-13 13:40:00,45.9,28.3,29.90,WSW,240,12.0,17.0,50,0.00,,OVC080,0.00,VWS V12.08,2013-05-13 17:40:00,
2013-05-13 13:43:00,46.0,28.4,29.90,WSW,250,2.0,13.0,50,0.00,,OVC070,0.00,VWS V12.08,2013-05-13 17:43:00,
2013-05-13 13:48:00,46.6,29.0,29.90,West,270,2.0,7.0,50,0.00,,OVC070,0.00,VWS V12.08,2013-05-13 17:48:00,
2013-05-13 13:50:00,46.6,29.0,29.90,West,265,1.0,8.0,50,0.00,,OVC080,0.00,VWS V12.08,2013-05-13 17:50:00,
2013-05-13 13:53:00,46.6,28.5,29.90,West,272,6.0,12.0,49,0.00,,OVC070,0.00,VWS V12.08,2013-05-13 17:53:00,
2013-05-13 13:58:00,46.2,28.1,29.91,WNW,284,6.0,12.0,49,0.00,,OVC070,0.00,VWS V12.08,2013-05-13 17:58:00,
2013-05-13 14:00:00,46.2,28.1,29.91,SW,224,5.0,12.0,49,0.00,,OVC080,0.00,VWS V12.08,2013-05-13 18:00:00,
2013-05-13 14:03:00,46.2,28.6,29.91,West,274,4.0,8.0,50,0.00,,OVC070,0.00,VWS V12.08,2013-05-13 18:03:00,
2013-05-13 14:08:00,46.2,28.1,29.91,SSW,208,11.0,18.0,49,0.00,,OVC070,0.00,VWS V12.08,2013-05-13 18:08:00,
2013-05-13 14:10:00,46.2,28.1,29.91,West,270,18.0,18.0,49,0.00,,OVC080,0.00,VWS V12.08,2013-05-13 18:10:00,
2013-05-13 14:13:00,46.3,28.7,29.91,West,263,6.0,13.0,50,0.00,,OVC070,0.00,VWS V12.08,2013-05-13 18:13:00,
2013-05-13 14:18:00,46.6,28.5,29.91,WNW,292,2.0,13.0,49,0.00,,OVC070,0.00,VWS V12.08,2013-05-13 18:18:00,
2013-05-13 14:20:00,46.6,28.5,29.91,WNW,292,0.0,13.0,49,0.00,,OVC080,0.00,VWS V12.08,2013-05-13 18:20:00,
2013-05-13 14:23:00,46.8,28.2,29.91,WNW,301,6.0,8.0,48,0.00,,OVC070,0.00,VWS V12.08,2013-05-13 18:23:00,
2013-05-13 14:28:00,46.9,28.8,29.91,WSW,244,7.0,14.0,49,0.00,,OVC070,0.00,VWS V12.08,2013-05-13 18:28:00,
2013-05-13 14:30:00,46.9,28.8,29.91,West,265,10.0,14.0,49,0.00,,OVC080,0.00,VWS V12.08,2013-05-13 18:30:00,
2013-05-13 14:33:00,47.2,29.5,29.91,NW,316,3.0,12.0,50,0.00,,OVC070,0.00,VWS V12.08,2013-05-13 18:33:00,
2013-05-13 14:38:00,47.5,28.8,29.91,SW,224,10.0,11.0,48,0.00,,OVC070,0.00,VWS V12.08,2013-05-13 18:38:00,
2013-05-13 14:40:00,47.5,28.8,29.91,SW,232,8.0,8.0,48,0.00,,OVC080,0.00,VWS V12.08,2013-05-13 18:40:00,
2013-05-13 14:43:00,47.6,28.4,29.91,WSW,247,3.0,11.0,47,0.00,,OVC070,0.00,VWS V12.08,2013-05-13 18:43:00,
2013-05-13 14:48:00,48.2,29.5,29.91,WSW,257,8.0,13.0,48,0.00,,OVC070,0.00,VWS V12.08,2013-05-13 18:48:00,
2013-05-13 14:50:00,48.2,29.5,29.91,WSW,257,8.0,13.0,48,0.00,,OVC080,0.00,VWS V12.08,2013-05-13 18:50:00,
2013-05-13 14:53:00,48.4,29.1,29.91,WNW,289,5.0,18.0,47,0.00,,OVC070,0.00,VWS V12.08,2013-05-13 18:53:00,
2013-05-13 14:58:00,48.2,30.0,29.91,SW,229,14.0,20.0,49,0.00,,OVC070,0.00,VWS V12.08,2013-05-13 18:58:00,
2013-05-13 15:00:00,48.2,30.0,29.91,WSW,248,11.0,17.0,49,0.00,,OVC080,0.00,VWS V12.08,2013-05-13 19:00:00,
2013-05-13 15:03:00,48.5,29.2,29.91,SW,229,13.0,16.0,47,0.00,,OVC080,0.00,VWS V12.08,2013-05-13 19:03:00,
2013-05-13 15:08:00,48.4,30.6,29.91,WSW,257,5.0,12.0,50,0.00,,OVC080,0.00,VWS V12.08,2013-05-13 19:08:00,
2013-05-13 15:10:00,48.4,30.6,29.91,WSW,257,5.0,12.0,50,0.00,,OVC080,0.00,VWS V12.08,2013-05-13 19:10:00,
2013-05-13 15:13:00,48.5,30.7,29.91,NW,315,7.0,7.0,50,0.00,,OVC080,0.00,VWS V12.08,2013-05-13 19:13:00,
2013-05-13 15:20:00,48.6,28.8,29.91,West,270,3.0,11.0,46,0.00,,OVC080,0.00,VWS V12.08,2013-05-13 19:20:00,
2013-05-13 15:23:00,48.6,28.8,29.91,West,270,3.0,11.0,46,0.00,,OVC080,0.00,VWS V12.08,2013-05-13 19:23:00,
2013-05-13 15:28:00,48.2,30.0,29.91,WSW,250,0.0,7.0,49,0.00,,OVC080,0.00,VWS V12.08,2013-05-13 19:28:00,
2013-05-13 15:34:00,47.9,30.2,29.91,SW,233,6.0,8.0,50,0.00,,OVC080,0.00,VWS V12.08,2013-05-13 19:34:00,
2013-05-13 15:39:00,47.9,30.2,29.91,NW,308,0.0,3.0,50,0.00,,OVC080,0.00,VWS V12.08,2013-05-13 19:39:00,
2013-05-13 15:44:00,48.1,30.8,29.91,SSW,196,6.0,8.0,51,0.00,,OVC080,0.00,VWS V12.08,2013-05-13 19:44:00,
2013-05-13 15:49:00,48.4,29.1,29.91,SW,236,7.0,12.0,47,0.00,,OVC080,0.00,VWS V12.08,2013-05-13 19:49:00,
2013-05-13 15:54:00,48.4,28.6,29.91,WSW,241,4.0,7.0,46,0.00,,OVC080,0.00,VWS V12.08,2013-05-13 19:54:00,
2013-05-13 15:59:00,48.2,30.0,29.91,WSW,240,1.0,2.0,49,0.00,,OVC080,0.00,VWS V12.08,2013-05-13 19:59:00,
2013-05-13 16:04:00,47.8,29.6,29.91,NW,320,0.0,5.0,49,0.00,,OVC080,0.00,VWS V12.08,2013-05-13 20:04:00,
2013-05-13 16:09:00,47.4,29.7,29.91,WSW,244,1.0,5.0,50,0.00,,OVC080,0.00,VWS V12.08,2013-05-13 20:09:00,
2013-05-13 16:14:00,47.4,29.7,29.92,SW,229,9.0,11.0,50,0.00,,OVC080,0.00,VWS V12.08,2013-05-13 20:14:00,
2013-05-13 16:19:00,47.8,29.6,29.92,WNW,284,3.0,5.0,49,0.00,,OVC080,0.00,VWS V12.08,2013-05-13 20:19:00,
2013-05-13 16:24:00,47.9,30.2,29.92,SSW,198,2.0,11.0,50,0.00,,OVC080,0.00,VWS V12.08,2013-05-13 20:24:00,
2013-05-13 16:29:00,47.8,30.6,29.92,WSW,239,3.0,5.0,51,0.00,,OVC080,0.00,VWS V12.08,2013-05-13 20:29:00,
2013-05-13 16:34:00,47.9,30.7,29.92,WSW,241,2.0,15.0,51,0.00,,OVC080,0.00,VWS V12.08,2013-05-13 20:34:00,
2013-05-13 16:39:00,47.6,29.4,29.92,WSW,253,7.0,12.0,49,0.00,,OVC080,0.00,VWS V12.08,2013-05-13 20:39:00,
2013-05-13 16:44:00,47.1,29.9,29.92,West,263,1.0,7.0,51,0.00,,OVC080,0.00,VWS V12.08,2013-05-13 20:44:00,
2013-05-13 16:49:00,46.9,29.7,29.92,West,268,3.0,8.0,51,0.00,,OVC080,0.00,VWS V12.08,2013-05-13 20:49:00,
2013-05-13 16:54:00,46.8,31.0,29.92,WSW,237,0.0,3.0,54,0.00,,OVC080,0.00,VWS V12.08,2013-05-13 20:54:00,
2013-05-13 16:59:00,46.8,30.6,29.93,SW,233,4.0,7.0,53,0.00,,OVC080,0.00,VWS V12.08,2013-05-13 20:59:00,
2013-05-13 17:04:00,46.8,32.0,29.93,WSW,240,1.0,5.0,56,0.00,,OVC080,0.00,VWS V12.08,2013-05-13 21:04:00,
2013-05-13 17:09:00,46.8,30.6,29.93,SW,215,2.0,3.0,53,0.00,,OVC080,0.00,VWS V12.08,2013-05-13 21:09:00,
2013-05-13 17:14:00,47.1,30.4,29.93,SW,232,2.0,6.0,52,0.00,,OVC080,0.00,VWS V12.08,2013-05-13 21:14:00,
2013-05-13 17:19:00,47.2,30.5,29.93,WSW,248,4.0,5.0,52,0.00,,OVC080,0.00,VWS V12.08,2013-05-13 21:19:00,
2013-05-13 17:24:00,47.2,31.0,29.93,West,260,1.0,2.0,53,0.00,,BKN080,0.00,VWS V12.08,2013-05-13 21:24:00,
2013-05-13 17:29:00,47.1,30.9,29.93,SW,223,5.0,5.0,53,0.00,,BKN080,0.00,VWS V12.08,2013-05-13 21:29:00,
2013-05-13 17:34:00,46.9,30.2,29.93,SSW,205,6.0,8.0,52,0.00,,BKN080,0.00,VWS V12.08,2013-05-13 21:34:00,
2013-05-13 17:39:00,46.8,31.5,29.93,West,263,3.0,4.0,55,0.00,,BKN080,0.00,VWS V12.08,2013-05-13 21:39:00,
2013-05-13 17:44:00,46.9,30.2,29.93,SSW,212,3.0,5.0,52,0.00,,BKN080,0.00,VWS V12.08,2013-05-13 21:44:00,
2013-05-13 17:49:00,46.9,30.2,29.93,SW,222,2.0,2.0,52,0.00,,BKN080,0.00,VWS V12.08,2013-05-13 21:49:00,
2013-05-13 17:54:00,46.9,30.2,29.93,WSW,246,0.0,1.0,52,0.00,,BKN080,0.00,VWS V12.08,2013-05-13 21:54:00,
2013-05-13 17:59:00,47.1,30.9,29.92,WSW,244,0.0,0.0,53,0.00,,BKN080,0.00,VWS V12.08,2013-05-13 21:59:00,
2013-05-13 18:04:00,47.1,30.4,29.92,WSW,244,0.0,0.0,52,0.00,,OVC080,0.00,VWS V12.08,2013-05-13 22:04:00,
2013-05-13 18:09:00,47.1,30.9,29.92,WSW,247,1.0,2.0,53,0.00,,OVC080,0.00,VWS V12.08,2013-05-13 22:09:00,
2013-05-13 18:14:00,47.1,30.4,29.93,SW,236,1.0,3.0,52,0.00,,OVC080,0.00,VWS V12.08,2013-05-13 22:14:00,
2013-05-13 18:19:00,47.1,31.8,29.93,SW,234,0.0,0.0,55,0.00,,OVC080,0.00,VWS V12.08,2013-05-13 22:19:00,
2013-05-13 18:24:00,46.9,30.2,29.93,West,272,2.0,3.0,52,0.00,,BKN060,0.00,VWS V12.08,2013-05-13 22:24:00,
2013-05-13 18:29:00,46.8,30.1,29.93,West,272,0.0,0.0,52,0.00,,BKN060,0.00,VWS V12.08,2013-05-13 22:29:00,
2013-05-13 18:34:00,46.6,30.4,29.93,West,271,0.0,1.0,53,0.00,,BKN060,0.00,VWS V12.08,2013-05-13 22:34:00,
2013-05-13 18:40:00,46.8,30.6,29.93,WNW,285,0.0,0.0,53,0.00,,BKN060,0.00,VWS V12.08,2013-05-13 22:40:00,
2013-05-13 18:45:00,46.8,29.6,29.93,SW,219,0.0,2.0,51,0.00,,BKN060,0.00,VWS V12.08,2013-05-13 22:45:00,
2013-05-13 18:50:00,46.8,30.1,29.93,SW,220,0.0,0.0,52,0.00,,BKN060,0.00,VWS V12.08,2013-05-13 22:50:00,
2013-05-13 18:55:00,46.5,30.3,29.93,SW,219,0.0,0.0,53,0.00,,BKN060,0.00,VWS V12.08,2013-05-13 22:55:00,
2013-05-13 19:00:00,46.2,30.9,29.94,SW,220,0.0,0.0,55,0.00,,BKN060,0.00,VWS V12.08,2013-05-13 23:00:00,
2013-05-13 19:05:00,45.9,29.8,29.94,SW,236,0.0,4.0,53,0.00,,OVC065,0.00,VWS V12.08,2013-05-13 23:05:00,
2013-05-13 19:10:00,45.6,30.8,29.94,SW,236,0.0,0.0,56,0.00,,OVC065,0.00,VWS V12.08,2013-05-13 23:10:00,
2013-05-13 19:15:00,45.3,31.0,29.94,SW,236,0.0,0.0,57,0.00,,OVC065,0.00,VWS V12.08,2013-05-13 23:15:00,
2013-05-13 19:20:00,45.0,31.1,29.94,SW,236,0.0,0.0,58,0.00,,OVC065,0.00,VWS V12.08,2013-05-13 23:20:00,
2013-05-13 19:25:00,44.7,30.4,29.94,SW,236,0.0,0.0,57,0.00,,OVC065,0.00,VWS V12.08,2013-05-13 23:25:00,
2013-05-13 19:30:00,44.5,30.2,29.95,SW,236,0.0,0.0,57,0.00,,OVC065,0.00,VWS V12.08,2013-05-13 23:30:00,
2013-05-13 19:35:00,44.4,31.0,29.95,SW,236,0.0,0.0,59,0.00,,OVC065,0.00,VWS V12.08,2013-05-13 23:35:00,
2013-05-13 19:40:00,44.2,32.4,29.95,SW,236,0.0,0.0,63,0.00,,OVC065,0.00,VWS V12.08,2013-05-13 23:40:00,
2013-05-13 19:45:00,44.1,33.1,29.96,SW,236,0.0,0.0,65,0.00,,OVC065,0.00,VWS V12.08,2013-05-13 23:45:00,
2013-05-13 19:50:00,43.8,32.8,29.96,SW,236,0.0,0.0,65,0.00,,OVC065,0.00,VWS V12.08,2013-05-13 23:50:00,
2013-05-13 19:55:00,43.7,33.8,29.96,SW,236,0.0,0.0,68,0.00,,OVC065,0.00,VWS V12.08,2013-05-13 23:55:00,
2013-05-13 20:00:00,43.4,32.4,29.96,SW,236,0.0,0.0,65,0.00,,OVC065,0.00,VWS V12.08,2013-05-14 00:00:00,
2013-05-13 20:05:00,43.2,33.0,29.96,SW,236,0.0,0.0,67,0.00,,BKN070,0.00,VWS V12.08,2013-05-14 00:05:00,
2013-05-13 20:10:00,43.1,33.3,29.96,SW,236,0.0,0.0,68,0.00,,BKN070,0.00,VWS V12.08,2013-05-14 00:10:00,
2013-05-13 20:15:00,42.6,33.2,29.97,SW,236,0.0,0.0,69,0.00,,BKN070,0.00,VWS V12.08,2013-05-14 00:15:00,
2013-05-13 20:20:00,42.3,33.2,29.97,SW,236,0.0,0.0,70,0.00,,BKN070,0.00,VWS V12.08,2013-05-14 00:20:00,
2013-05-13 20:25:00,41.9,33.2,29.97,SW,236,0.0,0.0,71,0.00,,BKN070,0.00,VWS V12.08,2013-05-14 00:25:00,
2013-05-13 20:30:00,41.6,32.9,29.97,SW,236,0.0,0.0,71,0.00,,BKN070,0.00,VWS V12.08,2013-05-14 00:30:00,
2013-05-13 20:35:00,41.2,32.9,29.97,SW,236,0.0,0.0,72,0.00,,BKN070,0.00,VWS V12.08,2013-05-14 00:35:00,
2013-05-13 20:40:00,40.8,32.8,29.97,SW,236,0.0,0.0,73,0.00,,BKN070,0.00,VWS V12.08,2013-05-14 00:40:00,
2013-05-13 20:45:00,40.3,32.7,29.97,SW,236,0.0,0.0,74,0.00,,OVC060,0.00,VWS V12.08,2013-05-14 00:45:00,
2013-05-13 20:50:00,40.1,32.8,29.97,SW,236,0.0,0.0,75,0.00,,OVC060,0.00,VWS V12.08,2013-05-14 00:50:00,
2013-05-13 20:55:00,39.6,32.7,29.97,SW,236,0.0,0.0,76,0.00,,OVC060,0.00,VWS V12.08,2013-05-14 00:55:00,
2013-05-13 21:00:00,39.3,32.4,29.98,SW,236,0.0,0.0,76,0.00,,OVC060,0.00,VWS V12.08,2013-05-14 01:00:00,
2013-05-13 21:05:00,39.1,32.8,29.98,SW,236,0.0,0.0,78,0.00,,OVC060,0.00,VWS V12.08,2013-05-14 01:05:00,
2013-05-13 21:10:00,38.8,32.9,29.98,SW,236,0.0,0.0,79,0.00,,OVC060,0.00,VWS V12.08,2013-05-14 01:10:00,
2013-05-13 21:15:00,38.3,32.4,29.99,SW,236,0.0,0.0,79,0.00,,OVC060,0.00,VWS V12.08,2013-05-14 01:15:00,
2013-05-13 21:20:00,37.9,32.3,29.99,SW,236,0.0,0.0,80,0.00,,OVC060,0.00,VWS V12.08,2013-05-14 01:20:00,
2013-05-13 21:25:00,37.5,32.2,29.99,SW,236,0.0,0.0,81,0.00,,OVC060,0.00,VWS V12.08,2013-05-14 01:25:00,
2013-05-13 21:30:00,37.1,32.1,29.99,SW,236,0.0,0.0,82,0.00,,OVC060,0.00,VWS V12.08,2013-05-14 01:30:00,
2013-05-13 21:35:00,36.9,32.2,29.99,SW,236,0.0,0.0,83,0.00,,OVC060,0.00,VWS V12.08,2013-05-14 01:35:00,
2013-05-13 21:40:00,36.6,31.9,29.99,SW,236,0.0,0.0,83,0.00,,OVC060,0.00,VWS V12.08,2013-05-14 01:40:00,
2013-05-13 21:45:00,36.6,31.9,30.01,SW,236,0.0,0.0,83,0.00,,OVC060,0.00,VWS V12.08,2013-05-14 01:45:00,
2013-05-13 21:50:00,36.6,32.2,30.01,SW,236,0.0,0.0,84,0.00,,OVC060,0.00,VWS V12.08,2013-05-14 01:50:00,
2013-05-13 21:55:00,36.6,32.2,30.01,SW,236,0.0,0.0,84,0.00,,OVC060,0.00,VWS V12.08,2013-05-14 01:55:00,
2013-05-13 22:00:00,36.6,32.5,30.02,SW,236,0.0,0.0,85,0.00,,OVC060,0.00,VWS V12.08,2013-05-14 02:00:00,
2013-05-13 22:05:00,36.6,32.5,30.02,SW,236,0.0,0.0,85,0.00,,OVC060,0.00,VWS V12.08,2013-05-14 02:05:00,
2013-05-13 22:10:00,36.6,32.8,30.02,SW,236,0.0,0.0,86,0.00,,OVC060,0.00,VWS V12.08,2013-05-14 02:10:00,
2013-05-13 22:15:00,36.6,32.8,30.02,SW,236,0.0,0.0,86,0.00,,OVC060,0.00,VWS V12.08,2013-05-14 02:15:00,
2013-05-13 22:20:00,36.5,32.7,30.02,SW,236,0.0,0.0,86,0.00,,OVC060,0.00,VWS V12.08,2013-05-14 02:20:00,
2013-05-13 22:25:00,36.3,32.5,30.02,SW,236,0.0,0.0,86,0.00,,OVC060,0.00,VWS V12.08,2013-05-14 02:25:00,
2013-05-13 22:30:00,36.2,32.4,30.03,SW,236,0.0,0.0,86,0.00,,OVC060,0.00,VWS V12.08,2013-05-14 02:30:00,
2013-05-13 22:35:00,35.9,32.4,30.03,SW,236,0.0,0.0,87,0.00,,OVC060,0.00,VWS V12.08,2013-05-14 02:35:00,
2013-05-13 22:40:00,35.8,32.3,30.03,SW,236,0.0,0.0,87,0.00,,SCT060,0.00,VWS V12.08,2013-05-14 02:40:00,
2013-05-13 22:45:00,35.5,32.3,30.04,SW,236,0.0,0.0,88,0.00,,SCT060,0.00,VWS V12.08,2013-05-14 02:45:00,